首页
METAR-TAF:

METAR-TAF

机场 :

Duke Field, 佛罗里达州, 美国

纬度: 30-39N, 经度: 086-31W, 海拔: 59米

当前天气观测

该预报发布于22分钟前的16:55 UTC
风速4节,风向西转西北
温度 36°C
湿度 39%
气压 1014 hPa
能見度: 16.1公里
少量云层高于4900英尺

METAR: KEGI 241655Z AUTO 30004KT 10SM FEW049 36/20 A2995 RMK AO2 SLP140 T03640197 $

时间: 12:17 (17:17 UTC)

预报

该预报发布于3小时和32分钟前的13:45 UTC
预报有效从24日的 13点(UTC)到 25日的 15点(UTC)
风速6节,风向西转西南
能见度10公里或以上
少量云层高于4500英尺
散云层高于6500英尺
成为
从 24日的 16点(UTC)到 24日的 17点(UTC)
风速9节,风向南转西南
能見度: 9000
散云层高于4500英尺
多云层高于6500英尺
小阵雨
短暂存在
从 24日的 17点(UTC)到 24日的 21点(UTC)
风速15节,风向西南,有时为25节阵风
能見度: 8000
散云层高于4500英尺
多云层高于6500英尺, 积雨云.
雷暴, 小雨
成为
从 24日的 22点(UTC)到 24日的 23点(UTC)
风速9节,风向西转西南
能见度10公里或以上
少量云层高于3000英尺
散云层高于4500英尺
多云层高于6500英尺
成为
从 25日的 07点(UTC)到 25日的 08点(UTC)
风速6节,风向西
能见度10公里或以上
少量云层高于2500英尺
散云层高于4000英尺

TAF: KEGI 241345Z 2413/2515 25006KT 9999 FEW045 SCT065 QNH2992INS BECMG 2416/2417 20009KT 9000 -SHRA SCT045 BKN065 QNH2987INS TEMPO 2417/2421 22015G25KT 8000 -TSRA SCT045 BKN065CB BECMG 2422/2423 25009KT 9999 NSW FEW030 SCT045 BKN065 QNH2988INS BECMG 2507/2508 28006KT 9999 FEW025 SCT040 QNH2990INS TX35/2417Z TN24/2509Z

超过4000个机场的气象观测和天气预报(METAR&TAF报告)。

可查询的气象台以黄色和红色小点在地图上表示。

将鼠标移到小点上方,可查看气象台名称。

然后点击查看天气观测和预报。

如需切换地图:点击带黑十字的绿色按钮放大地图;点击带横线的绿色按钮缩小地图;或者点击绿色箭头查看邻近地区的地图。


METAR-TAF: